Time,TemperatureF,DewpointF,PressureIn,WindDirection,WindDirectionDegrees,WindSpeedMPH,WindSpeedGustMPH,Humidity,HourlyPrecipIn,Conditions,Clouds,dailyrainin,SoftwareType,DateUTC
2013-01-12 00:07:00,2.1,-0.1,29.72,NNW,337,17.7,-999.0,90,-99.99,,,0.00,Acu-Link.com,2013-01-12 07:07:00,
2013-01-12 00:22:00,1.8,-0.5,29.73,WNW,292,16.6,-999.0,90,-99.99,,,0.00,Acu-Link.com,2013-01-12 07:22:00,
2013-01-12 00:37:00,1.4,-0.8,29.73,NE,45,19.0,-999.0,90,-99.99,,,0.00,Acu-Link.com,2013-01-12 07:37:00,
2013-01-12 00:52:00,1.0,-1.2,29.74,WNW,292,14.5,-999.0,90,-99.99,,,0.00,Acu-Link.com,2013-01-12 07:52:00,
2013-01-12 01:07:00,1.0,-1.2,29.75,WNW,292,14.5,-999.0,90,-99.99,,,0.00,Acu-Link.com,2013-01-12 08:07:00,
2013-01-12 01:22:00,0.9,-1.4,29.76,NNW,337,14.1,-999.0,90,-99.99,,,0.00,Acu-Link.com,2013-01-12 08:22:00,
2013-01-12 01:37:00,0.9,-1.4,29.77,NW,315,15.4,-999.0,90,-99.99,,,0.00,Acu-Link.com,2013-01-12 08:37:00,
2013-01-12 01:52:00,0.5,-1.7,29.78,NNW,337,11.9,-999.0,90,-99.99,,,0.00,Acu-Link.com,2013-01-12 08:52:00,
2013-01-12 02:09:00,0.5,-1.7,29.78,NW,315,16.6,-999.0,90,-99.99,,,0.00,Acu-Link.com,2013-01-12 09:09:00,
2013-01-12 02:24:00,0.5,-1.7,29.80,NNE,22,13.0,-999.0,90,-99.99,,,0.00,Acu-Link.com,2013-01-12 09:24:00,
2013-01-12 02:40:00,0.1,-2.1,29.81,WNW,292,17.0,-999.0,90,-99.99,,,0.00,Acu-Link.com,2013-01-12 09:40:00,
2013-01-12 02:55:00,0.1,-2.1,29.82,West,270,15.4,-999.0,90,-99.99,,,0.00,Acu-Link.com,2013-01-12 09:55:00,
2013-01-12 03:10:00,0.1,-2.3,29.82,NW,315,17.7,-999.0,89,-99.99,,,0.00,Acu-Link.com,2013-01-12 10:10:00,
2013-01-12 03:25:00,-0.2,-2.7,29.82,NNW,337,16.1,-999.0,89,-99.99,,,0.00,Acu-Link.com,2013-01-12 10:25:00,
2013-01-12 03:40:00,-0.4,-2.9,29.83,West,270,18.1,-999.0,89,-99.99,,,0.00,Acu-Link.com,2013-01-12 10:40:00,
2013-01-12 03:55:00,-0.6,-3.3,29.83,NNW,337,15.0,-999.0,88,-99.99,,,0.00,Acu-Link.com,2013-01-12 10:55:00,
2013-01-12 04:10:00,-0.8,-3.4,29.84,SE,135,11.0,-999.0,88,-99.99,,,0.00,Acu-Link.com,2013-01-12 11:10:00,
2013-01-12 04:25:00,-0.6,-3.3,29.84,NW,315,11.0,-999.0,88,-99.99,,,0.00,Acu-Link.com,2013-01-12 11:25:00,
2013-01-12 04:40:00,-0.8,-3.7,29.84,WNW,292,17.0,-999.0,87,-99.99,,,0.00,Acu-Link.com,2013-01-12 11:40:00,
2013-01-12 04:55:00,-0.8,-3.4,29.85,WNW,292,18.1,-999.0,88,-99.99,,,0.00,Acu-Link.com,2013-01-12 11:55:00,
2013-01-12 05:10:00,-0.8,-3.4,29.86,NW,315,13.0,-999.0,88,-99.99,,,0.00,Acu-Link.com,2013-01-12 12:10:00,
2013-01-12 05:26:00,-0.8,-3.4,29.87,WNW,292,9.4,-999.0,88,-99.99,,,0.00,Acu-Link.com,2013-01-12 12:26:00,
2013-01-12 05:41:00,-0.8,-3.7,29.88,North,0,17.0,-999.0,87,-99.99,,,0.00,Acu-Link.com,2013-01-12 12:41:00,
2013-01-12 05:56:00,-0.8,-3.7,29.88,NNW,337,7.8,-999.0,87,-99.99,,,0.00,Acu-Link.com,2013-01-12 12:56:00,
2013-01-12 06:11:00,-0.9,-3.9,29.89,WNW,292,7.8,-999.0,87,-99.99,,,0.00,Acu-Link.com,2013-01-12 13:11:00,
2013-01-12 06:26:00,-1.1,-4.0,29.89,NNE,22,11.0,-999.0,87,-99.99,,,0.00,Acu-Link.com,2013-01-12 13:26:00,
2013-01-12 06:41:00,-0.8,-3.7,29.90,NW,315,15.4,-999.0,87,-99.99,,,0.00,Acu-Link.com,2013-01-12 13:41:00,
2013-01-12 06:56:00,-0.8,-3.9,29.91,West,270,10.3,-999.0,86,-99.99,,,0.00,Acu-Link.com,2013-01-12 13:56:00,
2013-01-12 07:11:00,-1.1,-4.3,29.92,WNW,292,15.4,-999.0,86,-99.99,,,0.00,Acu-Link.com,2013-01-12 14:11:00,
2013-01-12 07:26:00,-1.3,-4.5,29.93,NNW,337,10.3,-999.0,86,-99.99,,,0.00,Acu-Link.com,2013-01-12 14:26:00,
2013-01-12 07:41:00,-1.8,-4.7,29.93,WNW,292,7.8,-999.0,87,-99.99,,,0.00,Acu-Link.com,2013-01-12 14:41:00,
2013-01-12 07:57:00,-1.8,-4.7,29.94,WNW,292,14.5,-999.0,87,-99.99,,,0.00,Acu-Link.com,2013-01-12 14:57:00,
2013-01-12 08:12:00,-2.6,-5.5,29.95,WNW,292,12.5,-999.0,87,-99.99,,,0.00,Acu-Link.com,2013-01-12 15:12:00,
2013-01-12 08:27:00,-2.4,-5.3,29.96,WNW,292,17.7,-999.0,87,-99.99,,,0.00,Acu-Link.com,2013-01-12 15:27:00,
2013-01-12 08:42:00,-2.2,-5.3,29.97,WNW,292,15.0,-999.0,86,-99.99,,,0.00,Acu-Link.com,2013-01-12 15:42:00,
2013-01-12 08:57:00,-2.6,-5.7,29.97,WNW,292,12.5,-999.0,86,-99.99,,,0.00,Acu-Link.com,2013-01-12 15:57:00,
2013-01-12 09:12:00,-2.2,-5.3,29.98,North,0,13.0,-999.0,86,-99.99,,,0.00,Acu-Link.com,2013-01-12 16:12:00,
2013-01-12 09:27:00,-2.2,-5.3,29.99,WNW,292,16.1,-999.0,86,-99.99,,,0.00,Acu-Link.com,2013-01-12 16:27:00,
2013-01-12 09:42:00,-2.7,-5.9,30.00,West,270,16.6,-999.0,86,-99.99,,,0.00,Acu-Link.com,2013-01-12 16:42:00,
2013-01-12 09:58:00,-2.6,-5.7,30.00,WNW,292,16.6,-999.0,86,-99.99,,,0.00,Acu-Link.com,2013-01-12 16:58:00,
2013-01-12 10:13:00,-2.2,-5.3,30.01,WNW,292,18.1,-999.0,86,-99.99,,,0.00,Acu-Link.com,2013-01-12 17:13:00,
2013-01-12 10:28:00,-2.4,-5.5,30.01,WNW,292,14.5,-999.0,86,-99.99,,,0.00,Acu-Link.com,2013-01-12 17:28:00,
2013-01-12 10:43:00,-2.6,-5.7,30.02,West,270,12.5,-999.0,86,-99.99,,,0.00,Acu-Link.com,2013-01-12 17:43:00,
2013-01-12 10:58:00,-2.6,-5.7,30.02,NW,315,17.0,-999.0,86,-99.99,,,0.00,Acu-Link.com,2013-01-12 17:58:00,
2013-01-12 11:13:00,-2.6,-5.7,30.01,West,270,11.0,-999.0,86,-99.99,,,0.00,Acu-Link.com,2013-01-12 18:13:00,
2013-01-12 11:28:00,-2.0,-4.9,30.01,WNW,292,17.7,-999.0,87,-99.99,,,0.00,Acu-Link.com,2013-01-12 18:28:00,
2013-01-12 11:44:00,-1.3,-4.2,30.01,NNW,337,19.7,-999.0,87,-99.99,,,0.00,Acu-Link.com,2013-01-12 18:44:00,
2013-01-12 11:59:00,-0.4,-3.6,30.01,NW,315,14.5,-999.0,86,-99.99,,,0.00,Acu-Link.com,2013-01-12 18:59:00,
2013-01-12 12:14:00,-0.2,-3.4,30.01,West,270,17.7,-999.0,86,-99.99,,,0.00,Acu-Link.com,2013-01-12 19:14:00,
2013-01-12 12:29:00,0.1,-3.0,30.01,West,270,16.1,-999.0,86,-99.99,,,0.00,Acu-Link.com,2013-01-12 19:29:00,
2013-01-12 12:44:00,0.7,-2.7,30.01,WNW,292,11.4,-999.0,85,-99.99,,,0.00,Acu-Link.com,2013-01-12 19:44:00,
2013-01-12 12:59:00,1.4,-2.3,30.02,WNW,292,15.0,-999.0,84,-99.99,,,0.00,Acu-Link.com,2013-01-12 19:59:00,
2013-01-12 13:14:00,0.5,-2.9,30.02,WNW,292,17.7,-999.0,85,-99.99,,,0.00,Acu-Link.com,2013-01-12 20:14:00,
2013-01-12 13:29:00,1.0,-2.6,30.02,WNW,292,15.4,-999.0,84,-99.99,,,0.00,Acu-Link.com,2013-01-12 20:29:00,
2013-01-12 13:44:00,1.2,-2.5,30.03,WNW,292,13.4,-999.0,84,-99.99,,,0.00,Acu-Link.com,2013-01-12 20:44:00,
2013-01-12 14:00:00,2.1,-2.1,30.03,WNW,292,11.9,-999.0,82,-99.99,,,0.00,Acu-Link.com,2013-01-12 21:00:00,
2013-01-12 14:15:00,2.3,-1.9,30.04,WNW,292,16.6,-999.0,82,-99.99,,,0.00,Acu-Link.com,2013-01-12 21:15:00,
2013-01-12 14:30:00,2.3,-1.7,30.04,West,270,9.4,-999.0,83,-99.99,,,0.00,Acu-Link.com,2013-01-12 21:30:00,
2013-01-12 14:45:00,3.2,-1.3,30.04,WNW,292,9.8,-999.0,81,-99.99,,,0.00,Acu-Link.com,2013-01-12 21:45:00,
2013-01-12 15:00:00,2.7,-1.8,30.04,WNW,292,11.4,-999.0,81,-99.99,,,0.00,Acu-Link.com,2013-01-12 22:00:00,
2013-01-12 15:15:00,2.3,-1.9,30.04,NW,315,13.4,-999.0,82,-99.99,,,0.00,Acu-Link.com,2013-01-12 22:15:00,
2013-01-12 15:31:00,2.3,-1.9,30.04,WNW,292,11.9,-999.0,82,-99.99,,,0.00,Acu-Link.com,2013-01-12 22:31:00,
2013-01-12 20:36:00,-0.2,-4.9,30.03,WNW,292,13.0,-999.0,80,-99.99,,,0.00,Acu-Link.com,2013-01-13 03:36:00,
2013-01-12 20:51:00,-0.4,-5.1,30.03,WNW,292,11.9,-999.0,80,-99.99,,,0.00,Acu-Link.com,2013-01-13 03:51:00,
2013-01-12 21:06:00,-0.2,-5.2,30.03,WNW,292,14.1,-999.0,79,-99.99,,,0.00,Acu-Link.com,2013-01-13 04:06:00,
2013-01-12 21:21:00,-0.6,-5.5,30.03,West,270,13.4,-999.0,79,-99.99,,,0.00,Acu-Link.com,2013-01-13 04:21:00,
2013-01-12 21:37:00,-0.9,-5.9,30.02,WNW,292,13.0,-999.0,79,-99.99,,,0.00,Acu-Link.com,2013-01-13 04:37:00,
2013-01-12 21:52:00,-2.0,-6.9,30.03,WNW,292,11.9,-999.0,79,-99.99,,,0.00,Acu-Link.com,2013-01-13 04:52:00,
2013-01-12 22:07:00,-0.9,-5.9,30.03,WNW,292,12.5,-999.0,79,-99.99,,,0.00,Acu-Link.com,2013-01-13 05:07:00,
2013-01-12 22:22:00,-0.8,-5.9,30.03,West,270,15.0,-999.0,78,-99.99,,,0.00,Acu-Link.com,2013-01-13 05:22:00,
2013-01-12 22:37:00,-0.2,-5.7,30.03,WNW,292,14.5,-999.0,77,-99.99,,,0.00,Acu-Link.com,2013-01-13 05:37:00,
2013-01-12 22:52:00,-0.4,-6.1,30.03,West,270,12.5,-999.0,76,-99.99,,,0.00,Acu-Link.com,2013-01-13 05:52:00,
2013-01-12 23:07:00,-0.8,-6.2,30.03,West,270,11.4,-999.0,77,-99.99,,,0.00,Acu-Link.com,2013-01-13 06:07:00,
2013-01-12 23:22:00,-1.1,-6.3,30.03,West,270,13.0,-999.0,78,-99.99,,,0.00,Acu-Link.com,2013-01-13 06:22:00,
2013-01-12 23:38:00,0.1,-5.1,30.03,WNW,292,11.4,-999.0,78,-99.99,,,0.00,Acu-Link.com,2013-01-13 06:38:00,
2013-01-12 23:53:00,-0.4,-5.6,30.03,NW,315,9.4,-999.0,78,-99.99,,,0.00,Acu-Link.com,2013-01-13 06:53:00,